Time;durP1;ratioP1;P1;durP2;ratioP2;P2;SDS_P1;SDS_P2;PMS_P1;PMS_P2;Temp;Humidity;BMP_temperature;BMP_pressure;BME280_temperature;BME280_humidity;BME280_pressure;Samples;Min_cycle;Max_cycle;Signal;HPM_P1;HPM_P2
2022/01/29 00:00:30;;;;;;;19.35;7.53;;;4.40;68.60;;;;;;7379557;19;20143;-79
2022/01/29 00:03:02;;;;;;;12.00;6.53;;;4.50;68.90;;;;;;7345927;19;20199;-78
2022/01/29 00:05:32;;;;;;;12.55;7.32;;;4.50;68.90;;;;;;7371785;19;20146;-79
2022/01/29 00:08:02;;;;;;;12.77;7.80;;;4.40;69.30;;;;;;7370784;19;20128;-78
2022/01/29 00:10:33;;;;;;;10.40;6.03;;;4.40;69.60;;;;;;7369742;19;20143;-78
2022/01/29 00:13:02;;;;;;;10.15;6.50;;;4.50;69.60;;;;;;7373927;19;20694;-78
2022/01/29 00:15:35;;;;;;;14.32;6.53;;;4.50;69.20;;;;;;7372119;19;20775;-78
2022/01/29 00:18:07;;;;;;;9.80;6.70;;;4.60;69.20;;;;;;7371656;19;20134;-79
2022/01/29 00:20:36;;;;;;;8.95;6.38;;;4.50;69.30;;;;;;7375502;19;20156;-78
2022/01/29 00:23:06;;;;;;;11.48;7.05;;;4.40;69.90;;;;;;7364941;19;20147;-79
2022/01/29 00:25:35;;;;;;;14.95;7.20;;;4.40;70.00;;;;;;7375314;19;20150;-79
2022/01/29 00:28:05;;;;;;;9.05;5.78;;;4.40;69.70;;;;;;7372314;19;20752;-79
2022/01/29 00:30:38;;;;;;;15.82;8.00;;;4.40;69.90;;;;;;7370766;19;20800;-79
2022/01/29 00:33:11;;;;;;;8.60;6.00;;;4.40;69.60;;;;;;7368045;19;20587;-78
2022/01/29 00:35:41;;;;;;;10.27;7.30;;;4.30;69.80;;;;;;7365135;19;20140;-78
2022/01/29 00:38:10;;;;;;;15.40;7.43;;;4.20;70.10;;;;;;7371516;19;20140;-77
2022/01/29 00:40:40;;;;;;;13.07;6.03;;;4.30;70.40;;;;;;7370303;19;20151;-78
2022/01/29 00:43:10;;;;;;;10.50;7.43;;;4.40;70.10;;;;;;7363998;19;20155;-76
2022/01/29 00:45:42;;;;;;;9.07;5.72;;;4.40;68.80;;;;;;7355425;19;20160;-75
2022/01/29 00:48:14;;;;;;;8.93;5.80;;;4.40;69.10;;;;;;7363897;19;20622;-76
2022/01/29 00:50:44;;;;;;;15.23;7.63;;;4.30;69.20;;;;;;7368557;19;20614;-76
2022/01/29 00:53:16;;;;;;;9.77;5.15;;;4.30;70.00;;;;;;7363407;19;20139;-76
2022/01/29 00:55:45;;;;;;;7.10;5.45;;;4.40;69.00;;;;;;7373074;19;20143;-75
2022/01/29 00:58:15;;;;;;;11.73;6.65;;;4.30;68.80;;;;;;7367380;19;20139;-76
2022/01/29 01:00:44;;;;;;;10.75;5.40;;;4.30;68.90;;;;;;7358345;19;20801;-76
2022/01/29 01:03:16;;;;;;;11.68;5.47;;;4.30;69.70;;;;;;7363822;19;20124;-77
2022/01/29 01:05:46;;;;;;;10.27;5.88;;;4.40;68.80;;;;;;7371207;19;20135;-77
2022/01/29 01:08:15;;;;;;;9.57;6.90;;;4.50;68.50;;;;;;7353007;19;20136;-78
2022/01/29 01:10:47;;;;;;;7.57;5.65;;;4.50;68.00;;;;;;7363714;19;20151;-79
2022/01/29 01:13:19;;;;;;;8.48;5.20;;;4.60;67.80;;;;;;7375473;19;20139;-79
2022/01/29 01:15:48;;;;;;;6.95;5.10;;;4.70;67.50;;;;;;7379134;19;20140;-78
2022/01/29 01:18:23;;;;;;;6.40;5.53;;;4.70;66.80;;;;;;7385095;19;20151;-79
2022/01/29 01:20:53;;;;;;;7.68;5.75;;;4.80;66.60;;;;;;7373878;19;20166;-79
2022/01/29 01:23:23;;;;;;;7.20;5.20;;;4.80;66.40;;;;;;7371155;19;20506;-78
2022/01/29 01:25:52;;;;;;;6.95;5.25;;;4.80;66.00;;;;;;7381308;19;20592;-78
2022/01/29 01:28:22;;;;;;;10.93;5.05;;;4.80;66.20;;;;;;7387102;19;20134;-79
2022/01/29 01:30:52;;;;;;;8.38;5.53;;;4.80;66.70;;;;;;7377713;19;20617;-78
2022/01/29 01:33:26;;;;;;;8.98;5.30;;;4.80;66.20;;;;;;7379468;19;20131;-78
2022/01/29 01:36:00;;;;;;;7.95;4.93;;;4.80;66.20;;;;;;7374540;19;20174;-78
2022/01/29 01:38:36;;;;;;;8.50;4.60;;;4.90;66.00;;;;;;7371398;19;20140;-78
2022/01/29 01:41:06;;;;;;;8.55;5.43;;;4.90;65.80;;;;;;7376154;19;20714;-78
2022/01/29 01:43:38;;;;;;;8.05;5.50;;;5.00;65.60;;;;;;7376829;19;20140;-76
2022/01/29 01:46:08;;;;;;;6.22;4.25;;;5.00;65.40;;;;;;7375878;19;20147;-78
2022/01/29 01:48:41;;;;;;;7.45;5.40;;;5.00;65.40;;;;;;7378701;19;20640;-77
2022/01/29 01:51:11;;;;;;;6.97;5.45;;;5.00;65.40;;;;;;7379964;19;20146;-78
2022/01/29 01:53:40;;;;;;;7.28;5.43;;;5.00;65.50;;;;;;7377681;19;20157;-79
2022/01/29 01:56:10;;;;;;;10.90;5.55;;;5.00;65.50;;;;;;7380236;19;21619;-79
2022/01/29 01:58:39;;;;;;;9.10;5.20;;;4.90;66.10;;;;;;7381553;19;20235;-79
2022/01/29 02:01:09;;;;;;;9.75;4.80;;;4.80;66.30;;;;;;7368323;19;20151;-80
2022/01/29 02:03:41;;;;;;;6.70;4.45;;;4.80;66.10;;;;;;7373916;19;20139;-81
2022/01/29 02:06:11;;;;;;;7.13;5.40;;;4.80;66.20;;;;;;7371025;19;20594;-77
2022/01/29 02:08:42;;;;;;;7.22;5.18;;;4.70;66.60;;;;;;7368319;19;20256;-78
2022/01/29 02:11:12;;;;;;;10.23;6.22;;;4.60;67.40;;;;;;7373031;19;20149;-78
2022/01/29 02:13:42;;;;;;;7.85;5.00;;;4.50;67.50;;;;;;7373058;19;20151;-82
2022/01/29 02:16:11;;;;;;;9.35;5.85;;;4.40;68.40;;;;;;7385563;19;20139;-80
2022/01/29 02:18:45;;;;;;;8.88;5.50;;;4.30;69.30;;;;;;7384326;19;20597;-80
2022/01/29 02:21:16;;;;;;;8.80;5.00;;;4.20;69.60;;;;;;7364864;19;20152;-79
2022/01/29 02:23:49;;;;;;;6.07;5.05;;;4.20;69.70;;;;;;7380410;19;20138;-80
2022/01/29 02:26:19;;;;;;;6.45;4.45;;;4.20;70.30;;;;;;7385619;19;20134;-81
2022/01/29 02:28:48;;;;;;;8.32;4.88;;;4.10;69.80;;;;;;7383640;19;20140;-79
2022/01/29 02:31:18;;;;;;;8.05;4.97;;;4.10;70.00;;;;;;7368366;19;20139;-82
2022/01/29 02:33:47;;;;;;;7.80;4.55;;;4.10;70.00;;;;;;7383721;19;20136;-80
2022/01/29 02:36:17;;;;;;;6.68;4.70;;;4.10;69.70;;;;;;7372346;19;20128;-79
2022/01/29 02:38:49;;;;;;;6.18;4.53;;;4.20;70.20;;;;;;7375327;19;20956;-79
2022/01/29 02:41:20;;;;;;;10.35;5.15;;;4.00;70.50;;;;;;7360643;19;20139;-78
2022/01/29 02:43:52;;;;;;;6.57;5.15;;;4.10;70.30;;;;;;7363642;19;20131;-79
2022/01/29 02:46:30;;;;;;;8.77;4.60;;;4.10;70.40;;;;;;7370822;19;20144;-79
2022/01/29 02:48:59;;;;;;;8.90;4.95;;;4.00;70.20;;;;;;7380870;19;20132;-78
2022/01/29 02:51:29;;;;;;;7.18;4.70;;;4.10;70.90;;;;;;7377708;19;20151;-79
2022/01/29 02:54:01;;;;;;;9.80;5.53;;;4.10;70.10;;;;;;7367024;19;20150;-78
2022/01/29 02:56:30;;;;;;;7.90;4.88;;;4.10;69.70;;;;;;7368580;19;20682;-78
2022/01/29 02:59:02;;;;;;;8.27;4.65;;;4.10;70.00;;;;;;7370506;19;20227;-78
2022/01/29 03:01:34;;;;;;;6.05;4.43;;;3.90;70.50;;;;;;7363768;19;20223;-78
2022/01/29 03:04:04;;;;;;;4.82;4.00;;;3.90;70.80;;;;;;7372163;19;20135;-78
2022/01/29 03:06:38;;;;;;;6.25;4.65;;;3.80;71.60;;;;;;7376514;19;20127;-78
2022/01/29 03:09:10;;;;;;;5.95;4.07;;;3.70;72.20;;;;;;7382589;19;20139;-78
2022/01/29 03:11:40;;;;;;;7.15;4.50;;;3.60;72.30;;;;;;7374536;19;20156;-78
2022/01/29 03:14:09;;;;;;;9.98;4.78;;;3.50;72.50;;;;;;7375742;19;20144;-78
2022/01/29 03:16:39;;;;;;;4.85;4.28;;;3.50;73.10;;;;;;7382532;19;20136;-80
2022/01/29 03:19:08;;;;;;;7.68;5.20;;;3.50;72.70;;;;;;7378340;19;20151;-78
2022/01/29 03:21:40;;;;;;;6.90;4.38;;;3.40;72.40;;;;;;7379423;19;20148;-79
2022/01/29 03:24:13;;;;;;;8.13;3.92;;;3.40;73.10;;;;;;7381586;19;20147;-77
2022/01/29 03:26:42;;;;;;;8.27;4.22;;;3.40;73.50;;;;;;7381813;19;20611;-79
2022/01/29 03:29:12;;;;;;;5.90;3.90;;;3.40;73.80;;;;;;7370282;19;20143;-79
2022/01/29 03:31:41;;;;;;;5.82;4.03;;;3.30;74.20;;;;;;7379568;19;20770;-78
2022/01/29 03:34:11;;;;;;;6.22;3.83;;;3.50;74.10;;;;;;7371173;19;20132;-78
2022/01/29 03:36:40;;;;;;;6.15;3.88;;;3.50;73.40;;;;;;7376879;19;20166;-77
2022/01/29 03:39:12;;;;;;;5.88;4.13;;;3.60;72.80;;;;;;7372638;19;20144;-78
2022/01/29 03:41:42;;;;;;;5.72;3.60;;;3.70;72.90;;;;;;7369242;19;20210;-79
2022/01/29 03:44:11;;;;;;;3.80;2.53;;;3.80;70.90;;;;;;7375453;19;20163;-80
2022/01/29 03:46:41;;;;;;;7.68;4.05;;;4.00;70.50;;;;;;7369846;19;22325;-79
2022/01/29 03:49:10;;;;;;;7.32;4.55;;;4.20;69.40;;;;;;7377027;19;20173;-79
2022/01/29 03:51:40;;;;;;;4.63;3.50;;;4.30;68.80;;;;;;7374801;19;20159;-79
2022/01/29 03:54:12;;;;;;;4.25;3.80;;;4.40;68.70;;;;;;7370671;19;20135;-80
2022/01/29 03:56:42;;;;;;;5.13;4.15;;;4.40;68.60;;;;;;7379141;19;20144;-79
2022/01/29 03:59:11;;;;;;;4.78;3.67;;;4.50;68.00;;;;;;7373406;19;20408;-79
2022/01/29 04:01:41;;;;;;;7.10;3.58;;;4.50;66.90;;;;;;7354357;19;21083;-79
2022/01/29 04:04:13;;;;;;;5.93;3.30;;;4.60;67.00;;;;;;7367482;19;20135;-79
2022/01/29 04:06:44;;;;;;;6.07;3.60;;;4.60;67.10;;;;;;7378754;19;20139;-79
2022/01/29 04:09:17;;;;;;;5.80;3.75;;;4.60;67.10;;;;;;7375855;19;20143;-79
2022/01/29 04:11:47;;;;;;;7.45;3.25;;;4.60;66.20;;;;;;7405732;19;20130;-79
2022/01/29 04:14:20;;;;;;;6.68;3.50;;;4.60;65.80;;;;;;7413516;19;20139;-78
2022/01/29 04:16:50;;;;;;;6.05;3.97;;;4.70;65.70;;;;;;7414516;19;20132;-78
2022/01/29 04:19:19;;;;;;;3.45;2.97;;;4.70;65.70;;;;;;7408483;19;20184;-78
2022/01/29 04:21:48;;;;;;;4.45;3.00;;;4.80;64.80;;;;;;7411537;19;20123;-79
2022/01/29 04:24:20;;;;;;;4.07;2.50;;;4.70;64.70;;;;;;7411227;19;20162;-78
2022/01/29 04:26:50;;;;;;;3.00;2.70;;;4.70;64.30;;;;;;7410853;19;20138;-77
2022/01/29 04:29:20;;;;;;;3.67;2.60;;;4.70;64.50;;;;;;7413363;19;20138;-78
2022/01/29 04:31:59;;;;;;;4.70;2.97;;;4.70;64.80;;;;;;7406845;19;20124;-78
2022/01/29 04:34:29;;;;;;;3.28;2.65;;;4.70;64.50;;;;;;7411393;19;20177;-79
2022/01/29 04:36:59;;;;;;;3.40;2.90;;;4.60;64.80;;;;;;7410162;19;20180;-79
2022/01/29 04:39:31;;;;;;;4.38;2.30;;;4.70;64.90;;;;;;7406357;19;20146;-78
2022/01/29 04:42:00;;;;;;;4.45;2.72;;;4.80;64.20;;;;;;7408627;19;20132;-79
2022/01/29 04:44:32;;;;;;;4.30;2.60;;;4.80;64.20;;;;;;7417140;19;20215;-78
2022/01/29 04:47:01;;;;;;;3.63;2.40;;;4.70;64.50;;;;;;7406258;19;22568;-79
2022/01/29 04:49:31;;;;;;;10.23;3.03;;;4.80;64.50;;;;;;7405527;19;20132;-78
2022/01/29 04:52:00;;;;;;;4.25;2.60;;;4.70;64.00;;;;;;7418010;19;20144;-81
2022/01/29 04:54:32;;;;;;;4.45;2.60;;;4.70;64.00;;;;;;7422430;19;20136;-78
2022/01/29 04:57:02;;;;;;;4.45;2.70;;;4.70;64.30;;;;;;7405416;19;20145;-78
2022/01/29 04:59:31;;;;;;;5.35;3.00;;;4.70;64.30;;;;;;7408867;19;20142;-77
2022/01/29 05:02:01;;;;;;;4.10;2.65;;;4.90;64.80;;;;;;7396697;19;20179;-80
2022/01/29 05:04:30;;;;;;;5.60;3.40;;;4.90;64.20;;;;;;7410221;19;20176;-76
2022/01/29 05:07:00;;;;;;;4.50;2.60;;;4.90;64.30;;;;;;7421896;19;20164;-77
2022/01/29 05:09:32;;;;;;;6.47;3.38;;;4.90;64.60;;;;;;7423142;19;20123;-77
2022/01/29 05:12:02;;;;;;;3.30;2.45;;;5.00;64.80;;;;;;7425173;19;20147;-78
2022/01/29 05:14:39;;;;;;;5.32;3.50;;;5.00;64.50;;;;;;7420437;19;20139;-78
2022/01/29 05:27:59;;;;;;;6.25;5.10;;;5.00;65.90;;;;;;7425080;19;20143;-80
2022/01/29 05:30:28;;;;;;;5.68;4.70;;;5.00;66.20;;;;;;7418280;19;20116;-78
2022/01/29 05:32:58;;;;;;;9.70;6.00;;;5.10;66.20;;;;;;7424000;19;20167;-81
2022/01/29 05:35:28;;;;;;;9.15;5.68;;;5.10;66.10;;;;;;7419216;19;20175;-76
2022/01/29 05:37:57;;;;;;;7.35;5.65;;;5.10;66.30;;;;;;7425541;19;20187;-76
2022/01/29 05:40:29;;;;;;;14.23;7.05;;;5.00;66.60;;;;;;7410128;19;20135;-78
2022/01/29 05:42:59;;;;;;;9.77;6.35;;;5.00;66.90;;;;;;7427518;19;20132;-76
2022/01/29 05:45:29;;;;;;;10.23;6.40;;;5.00;66.90;;;;;;7417621;19;20128;-80
2022/01/29 05:47:59;;;;;;;10.98;6.95;;;4.90;67.10;;;;;;7411084;19;20158;-76
2022/01/29 05:50:28;;;;;;;9.35;7.13;;;4.90;67.50;;;;;;7417693;19;20214;-79
2022/01/29 05:52:58;;;;;;;10.35;7.88;;;4.80;67.70;;;;;;7390156;19;20140;-75
2022/01/29 05:55:30;;;;;;;12.13;7.28;;;4.80;67.90;;;;;;7391825;19;20150;-74
2022/01/29 05:58:00;;;;;;;12.93;7.13;;;4.80;68.30;;;;;;7378943;19;20495;-74
2022/01/29 06:00:29;;;;;;;17.20;7.68;;;4.80;68.20;;;;;;7375071;19;20777;-74
2022/01/29 06:03:03;;;;;;;13.73;7.20;;;4.90;68.20;;;;;;7375230;19;20632;-75
2022/01/29 06:05:33;;;;;;;14.68;7.60;;;4.90;68.00;;;;;;7385705;19;20135;-75
2022/01/29 06:08:02;;;;;;;10.82;7.30;;;4.80;67.80;;;;;;7378695;19;20140;-75
2022/01/29 06:10:35;;;;;;;12.57;6.75;;;4.80;68.20;;;;;;7381519;19;20143;-75
2022/01/29 06:13:08;;;;;;;12.10;8.63;;;4.80;68.10;;;;;;7375959;19;20599;-74
2022/01/29 06:15:39;;;;;;;12.73;8.45;;;4.80;69.00;;;;;;7381929;19;20142;-74
2022/01/29 06:18:11;;;;;;;11.18;8.05;;;4.80;68.30;;;;;;7376400;19;20151;-75
2022/01/29 06:20:41;;;;;;;13.00;8.45;;;4.80;68.20;;;;;;7371292;19;20166;-75
2022/01/29 06:23:14;;;;;;;12.18;8.57;;;4.80;68.70;;;;;;7381066;19;20143;-74
2022/01/29 06:25:46;;;;;;;12.30;8.40;;;4.90;68.70;;;;;;7380689;19;20957;-75
2022/01/29 06:28:16;;;;;;;10.68;7.68;;;4.90;68.50;;;;;;7375540;19;20481;-75
2022/01/29 06:30:46;;;;;;;11.55;8.35;;;4.80;68.80;;;;;;7375634;19;20169;-75
2022/01/29 06:33:16;;;;;;;11.13;7.63;;;4.80;69.10;;;;;;7356773;19;20430;-77
2022/01/29 06:35:47;;;;;;;13.38;8.85;;;4.80;69.70;;;;;;7392072;19;20150;-75
2022/01/29 06:38:18;;;;;;;12.23;8.20;;;4.90;69.40;;;;;;7392669;19;20147;-75
2022/01/29 06:40:50;;;;;;;12.32;8.13;;;4.90;69.00;;;;;;7399473;19;20564;-75
2022/01/29 06:43:20;;;;;;;14.73;9.65;;;5.00;68.60;;;;;;7391705;19;20327;-74
2022/01/29 06:45:49;;;;;;;9.65;7.60;;;5.00;68.10;;;;;;7389255;19;20429;-75
2022/01/29 06:48:19;;;;;;;9.38;6.95;;;4.90;67.80;;;;;;7393742;19;20216;-75
2022/01/29 06:50:49;;;;;;;12.98;7.47;;;4.90;68.10;;;;;;7397793;19;20131;-75
2022/01/29 06:53:18;;;;;;;10.15;7.47;;;4.90;68.30;;;;;;7396580;19;20136;-74
2022/01/29 06:55:50;;;;;;;14.30;8.85;;;4.90;68.50;;;;;;7397159;19;20127;-74
2022/01/29 06:58:20;;;;;;;18.85;9.45;;;4.90;68.70;;;;;;7393537;19;20136;-74
2022/01/29 07:00:49;;;;;;;15.88;9.32;;;4.90;69.10;;;;;;7385700;19;20156;-78
2022/01/29 07:03:19;;;;;;;13.48;8.60;;;4.90;68.70;;;;;;7394644;19;20303;-76
2022/01/29 07:05:49;;;;;;;14.65;8.63;;;4.90;68.70;;;;;;7399777;19;20137;-76
2022/01/29 07:08:19;;;;;;;12.68;8.20;;;4.70;70.40;;;;;;7397591;19;20154;-80
2022/01/29 07:10:52;;;;;;;14.60;10.10;;;4.70;70.00;;;;;;7390240;19;20136;-76
2022/01/29 07:13:22;;;;;;;14.18;8.98;;;4.40;70.00;;;;;;7393514;19;20176;-79
2022/01/29 07:15:52;;;;;;;16.13;9.60;;;4.40;70.20;;;;;;7386638;19;20128;-75
2022/01/29 07:18:21;;;;;;;12.48;7.90;;;4.30;70.90;;;;;;7388876;19;20132;-78
2022/01/29 07:20:51;;;;;;;11.95;7.68;;;4.20;71.60;;;;;;7391033;19;20174;-78
2022/01/29 07:23:20;;;;;;;14.75;8.45;;;4.00;72.50;;;;;;7389758;19;22290;-78
2022/01/29 07:25:52;;;;;;;12.63;7.28;;;3.90;72.90;;;;;;7392583;19;20318;-77
2022/01/29 07:28:24;;;;;;;12.05;7.22;;;3.90;72.70;;;;;;7390240;19;20127;-78
2022/01/29 07:30:54;;;;;;;10.45;7.05;;;3.90;72.90;;;;;;7387817;19;20124;-80
2022/01/29 07:33:23;;;;;;;14.40;7.47;;;3.90;73.00;;;;;;7388202;19;20136;-77
2022/01/29 07:35:53;;;;;;;13.68;7.50;;;4.00;72.20;;;;;;7396264;19;20387;-77
2022/01/29 07:38:22;;;;;;;8.07;6.03;;;4.00;72.20;;;;;;7387821;19;20124;-74
2022/01/29 07:40:55;;;;;;;9.90;5.18;;;4.10;71.10;;;;;;7387103;19;20844;-74
2022/01/29 07:43:25;;;;;;;9.05;5.75;;;4.10;70.40;;;;;;7385718;19;20120;-75
2022/01/29 07:45:55;;;;;;;8.32;5.30;;;4.30;69.10;;;;;;7390741;19;20162;-76
2022/01/29 07:48:24;;;;;;;10.07;5.03;;;4.30;69.40;;;;;;7387471;19;20536;-79
2022/01/29 07:50:54;;;;;;;4.97;3.70;;;4.40;68.80;;;;;;7379775;19;20142;-72
2022/01/29 07:53:24;;;;;;;8.95;4.32;;;4.50;67.50;;;;;;7383688;19;20143;-73
2022/01/29 07:55:56;;;;;;;7.55;3.47;;;4.60;66.90;;;;;;7381626;19;20330;-75
2022/01/29 07:58:25;;;;;;;8.32;4.47;;;4.60;65.50;;;;;;7394842;19;20192;-73
2022/01/29 08:00:55;;;;;;;6.32;3.17;;;4.70;65.20;;;;;;7378415;19;20177;-75
2022/01/29 08:03:27;;;;;;;4.28;3.25;;;4.80;63.70;;;;;;7385571;19;20128;-74
2022/01/29 08:05:56;;;;;;;4.65;3.33;;;4.70;63.60;;;;;;7394865;19;20255;-76
2022/01/29 08:08:26;;;;;;;6.00;3.80;;;4.80;63.40;;;;;;7394142;19;20131;-73
2022/01/29 08:10:58;;;;;;;3.88;3.08;;;4.80;63.30;;;;;;7396568;19;20131;-75
2022/01/29 08:13:27;;;;;;;4.20;2.80;;;4.90;62.10;;;;;;7388345;19;20370;-74
2022/01/29 08:15:57;;;;;;;4.93;3.05;;;5.00;62.20;;;;;;7387441;19;20127;-77
2022/01/29 08:18:26;;;;;;;4.13;2.53;;;5.10;61.90;;;;;;7391245;19;20128;-76
2022/01/29 08:20:56;;;;;;;5.80;3.53;;;5.10;61.60;;;;;;7384273;19;20916;-75
2022/01/29 08:23:26;;;;;;;5.05;3.35;;;5.10;60.80;;;;;;7380892;19;20135;-76
2022/01/29 08:25:58;;;;;;;8.95;3.15;;;5.10;61.20;;;;;;7381482;19;20153;-75
2022/01/29 08:28:28;;;;;;;5.80;2.80;;;5.10;60.20;;;;;;7386476;19;20120;-74
2022/01/29 08:30:57;;;;;;;5.53;3.38;;;5.10;60.30;;;;;;7382815;19;20124;-76
2022/01/29 08:33:29;;;;;;;6.22;3.05;;;5.10;59.90;;;;;;7389690;19;20120;-73
2022/01/29 08:35:59;;;;;;;3.58;2.65;;;5.30;60.00;;;;;;7384387;19;20302;-75
2022/01/29 08:38:29;;;;;;;4.28;2.60;;;5.40;59.60;;;;;;7380527;19;20183;-76
2022/01/29 08:41:01;;;;;;;4.72;2.63;;;5.60;59.30;;;;;;7372316;19;20822;-74
2022/01/29 08:43:32;;;;;;;3.40;2.85;;;5.80;59.00;;;;;;7386794;19;20178;-75
2022/01/29 08:46:02;;;;;;;2.80;2.50;;;6.00;58.10;;;;;;7373965;19;20588;-75
2022/01/29 08:48:32;;;;;;;3.13;2.70;;;6.10;57.90;;;;;;7390431;19;20543;-76
2022/01/29 08:51:01;;;;;;;4.18;2.35;;;6.00;57.90;;;;;;7382813;19;20120;-74
2022/01/29 08:53:31;;;;;;;4.22;3.10;;;6.20;58.10;;;;;;7380647;19;20156;-75
2022/01/29 08:56:03;;;;;;;7.97;3.25;;;6.30;57.60;;;;;;7393892;19;20312;-73
2022/01/29 08:58:33;;;;;;;4.53;3.35;;;6.20;57.40;;;;;;7383260;19;20239;-72
2022/01/29 09:01:07;;;;;;;6.28;2.92;;;6.10;58.30;;;;;;7378388;19;20231;-75
2022/01/29 09:03:38;;;;;;;5.65;3.40;;;6.10;58.00;;;;;;7389960;19;20135;-75
2022/01/29 09:06:07;;;;;;;4.38;3.28;;;6.20;58.40;;;;;;7388417;19;20147;-74
2022/01/29 09:08:38;;;;;;;5.25;3.17;;;6.30;57.80;;;;;;7380935;19;20124;-73
2022/01/29 09:11:11;;;;;;;5.18;4.00;;;6.40;57.50;;;;;;7369639;19;20203;-70
2022/01/29 09:13:40;;;;;;;6.85;3.85;;;6.50;57.20;;;;;;7370557;19;20323;-73
2022/01/29 09:16:10;;;;;;;6.47;3.65;;;6.50;56.90;;;;;;7365605;19;20342;-71
2022/01/29 09:18:39;;;;;;;6.05;5.45;;;6.60;57.10;;;;;;7362119;19;20143;-73
2022/01/29 09:21:09;;;;;;;10.55;3.95;;;6.60;57.30;;;;;;7368839;19;20140;-77
2022/01/29 09:23:39;;;;;;;4.07;3.00;;;6.80;56.90;;;;;;7366567;19;20124;-74
2022/01/29 09:26:14;;;;;;;6.95;4.05;;;;;;;;;;7377388;19;20263;-74
2022/01/29 09:28:43;;;;;;;6.40;3.45;;;;;;;;;;7373844;19;20135;-74
2022/01/29 09:31:13;;;;;;;5.32;3.40;;;;;;;;;;7372591;19;20206;-73
2022/01/29 09:33:43;;;;;;;5.50;4.15;;;;;;;;;;7378270;19;20128;-73
2022/01/29 09:36:12;;;;;;;4.95;3.70;;;6.80;56.50;;;;;;7383420;19;20131;-85
2022/01/29 09:38:42;;;;;;;7.65;3.55;;;8.30;55.40;;;;;;7383229;19;20127;-80
2022/01/29 09:41:18;;;;;;;7.47;3.80;;;9.30;53.80;;;;;;7377940;19;20125;-82
2022/01/29 09:43:48;;;;;;;5.17;3.60;;;11.00;49.50;;;;;;7395812;19;20607;-81
2022/01/29 09:46:18;;;;;;;4.10;3.70;;;11.00;48.20;;;;;;7376571;19;20419;-80
2022/01/29 09:48:48;;;;;;;5.20;3.93;;;12.00;46.90;;;;;;7392952;19;20421;-80
2022/01/29 09:51:18;;;;;;;7.43;4.10;;;12.50;46.30;;;;;;7374098;19;20433;-77
2022/01/29 09:53:48;;;;;;;4.40;3.00;;;12.00;46.00;;;;;;7391193;19;20431;-77
2022/01/29 09:56:23;;;;;;;3.90;3.10;;;11.80;46.40;;;;;;7390257;19;20426;-77
2022/01/29 09:58:53;;;;;;;5.17;3.70;;;12.00;46.40;;;;;;7384404;19;20414;-77
2022/01/29 10:01:23;;;;;;;4.33;3.40;;;11.80;46.40;;;;;;7377178;19;20420;-77
2022/01/29 10:04:01;;;;;;;4.90;3.90;;;12.30;47.10;;;;;;7389973;19;20521;-77
2022/01/29 10:06:31;;;;;;;4.83;3.67;;;13.70;45.10;;;;;;7375997;19;20509;-78
2022/01/29 10:09:04;;;;;;;4.73;2.70;;;14.40;43.50;;;;;;7382421;19;20435;-79
2022/01/29 10:11:36;;;;;;;4.23;3.10;;;13.50;43.00;;;;;;7380576;19;20428;-80
2022/01/29 10:14:08;;;;;;;4.03;3.23;;;13.00;43.90;;;;;;7375738;19;20422;-79
2022/01/29 10:16:44;;;;;;;4.80;2.97;;;13.70;43.90;;;;;;7374948;19;20408;-76
2022/01/29 10:19:16;;;;;;;4.13;3.10;;;13.90;44.00;;;;;;7383273;19;20412;-77
2022/01/29 10:21:49;;;;;;;4.80;2.70;;;14.50;41.90;;;;;;7394352;19;20686;-80
2022/01/29 10:24:21;;;;;;;4.00;3.17;;;13.70;43.70;;;;;;7379766;19;20639;-78
2022/01/29 10:26:55;;;;;;;3.57;2.87;;;13.50;44.70;;;;;;7394361;19;20404;-78
2022/01/29 10:29:26;;;;;;;3.80;2.83;;;12.70;46.00;;;;;;7380072;19;20508;-78
2022/01/29 10:31:57;;;;;;;4.73;3.40;;;11.80;47.30;;;;;;7383582;19;20416;-79
2022/01/29 10:34:28;;;;;;;8.30;3.70;;;11.00;49.00;;;;;;7388393;19;20404;-80
2022/01/29 10:37:17;;;;;;;3.70;2.90;;;10.90;49.70;;;;;;7373547;19;20417;-77
2022/01/29 10:39:55;;;;;;;4.23;3.50;;;11.50;49.40;;;;;;7381952;19;20409;-75
2022/01/29 10:42:31;;;;;;;3.67;3.07;;;11.60;48.70;;;;;;7387289;19;21141;-75
2022/01/29 10:45:03;;;;;;;5.30;3.33;;;11.80;48.80;;;;;;7377781;19;20435;-74
2022/01/29 10:47:33;;;;;;;3.60;3.00;;;11.50;48.50;;;;;;7370267;19;20484;-74
2022/01/29 10:50:06;;;;;;;4.07;3.30;;;11.30;49.70;;;;;;7378869;19;20409;-73
2022/01/29 10:52:37;;;;;;;5.97;2.63;;;11.70;48.70;;;;;;7384688;19;20416;-73
2022/01/29 10:55:09;;;;;;;5.30;3.03;;;11.70;48.50;;;;;;7377961;19;20420;-72
2022/01/29 10:57:44;;;;;;;3.20;2.37;;;11.20;49.40;;;;;;7381267;19;20399;-73
2022/01/29 11:00:20;;;;;;;5.53;3.23;;;10.70;50.60;;;;;;7368709;19;20412;-73
2022/01/29 11:02:57;;;;;;;3.53;2.50;;;10.60;51.30;;;;;;7361216;19;20408;-72
2022/01/29 11:05:31;;;;;;;4.07;2.83;;;10.50;51.70;;;;;;7382522;19;20396;-73
2022/01/29 11:08:01;;;;;;;4.53;3.07;;;;;;;;;;7366570;19;20388;-70
2022/01/29 11:10:31;;;;;;;4.07;2.30;;;10.60;52.00;;;;;;7375504;19;21201;-70
2022/01/29 11:13:04;;;;;;;3.50;2.43;;;9.90;54.90;;;;;;7380287;19;21185;-70
2022/01/29 11:15:34;;;;;;;5.63;2.10;;;9.80;55.40;;;;;;7379668;19;20531;-69
2022/01/29 11:18:04;;;;;;;2.03;1.80;;;9.50;56.00;;;;;;7395643;19;20408;-68
2022/01/29 11:20:36;;;;;;;2.37;1.87;;;9.40;56.70;;;;;;7369304;19;20436;-74
2022/01/29 11:23:06;;;;;;;3.30;2.33;;;9.40;56.80;;;;;;7384649;19;20376;-75
2022/01/29 11:25:36;;;;;;;2.73;1.90;;;9.40;57.00;;;;;;7381552;19;20678;-75
2022/01/29 11:28:18;;;;;;;4.20;2.30;;;;;;;;;;7380932;19;20443;-76
2022/01/29 11:30:49;;;;;;;5.23;2.03;;;;;;;;;;7368398;19;21054;-73
2022/01/29 11:33:18;;;;;;;3.37;1.53;;;;;;;;;;7370954;19;20432;-78
2022/01/29 11:35:55;;;;;;;3.80;2.00;;;;;;;;;;7372097;19;20679;-78
2022/01/29 11:38:33;;;;;;;2.00;1.50;;;9.30;57.20;;;;;;7369302;19;20416;-75
2022/01/29 11:41:04;;;;;;;4.23;2.43;;;9.00;59.30;;;;;;7374797;19;21165;-76
2022/01/29 11:43:38;;;;;;;2.50;1.70;;;9.10;58.60;;;;;;7357562;19;20486;-80
2022/01/29 11:46:30;;;;;;;2.70;2.10;;;9.20;58.40;;;;;;7367207;19;20415;-78
2022/01/29 11:49:00;;;;;;;4.60;1.97;;;9.10;58.40;;;;;;7383747;19;20408;-78
2022/01/29 11:51:48;;;;;;;2.10;1.77;;;9.10;58.70;;;;;;7376999;19;20908;-78
2022/01/29 11:54:29;;;;;;;1.33;1.10;;;8.70;59.30;;;;;;7370850;19;20404;-76
2022/01/29 11:57:15;;;;;;;2.00;1.70;;;8.80;59.80;;;;;;7370622;19;20138;-77
2022/01/29 11:59:47;;;;;;;2.07;1.60;;;8.70;59.70;;;;;;7371613;19;20404;-77
2022/01/29 12:02:44;;;;;;;3.73;2.20;;;8.80;60.00;;;;;;7354017;19;20187;-77
2022/01/29 12:05:15;;;;;;;4.00;2.03;;;9.00;59.30;;;;;;7373035;19;20361;-77
2022/01/29 12:08:16;;;;;;;1.90;1.20;;;8.90;59.70;;;;;;7381786;19;20553;-78
2022/01/29 12:10:53;;;;;;;2.63;1.60;;;9.10;59.20;;;;;;7387100;19;20403;-76
2022/01/29 12:13:24;;;;;;;2.90;1.60;;;9.00;59.70;;;;;;7379621;19;20504;-77
2022/01/29 12:15:56;;;;;;;1.93;1.40;;;8.90;59.70;;;;;;7370300;19;20400;-77
2022/01/29 12:18:43;;;;;;;3.13;1.17;;;;;;;;;;7380063;19;20695;-78
2022/01/29 12:21:13;;;;;;;7.73;1.83;;;;;;;;;;7371784;19;20150;-76
2022/01/29 12:23:49;;;;;;;4.20;1.70;;;;;;;;;;7379374;19;20424;-77
2022/01/29 12:26:24;;;;;;;2.50;1.70;;;;;;;;;;7373764;19;20404;-76
2022/01/29 12:28:55;;;;;;;2.03;1.80;;;;;;;;;;7373283;19;20408;-80
2022/01/29 12:31:27;;;;;;;2.43;2.00;;;;;;;;;;7380666;19;20920;-77
2022/01/29 12:34:13;;;;;;;1.83;1.40;;;;;;;;;;7346337;19;20456;-77
2022/01/29 12:36:45;;;;;;;2.95;1.88;;;;;;;;;;7372192;19;20136;-78
2022/01/29 12:39:21;;;;;;;2.40;1.70;;;;;;;;;;7366090;19;20127;-78
2022/01/29 12:42:04;;;;;;;2.05;1.25;;;;;;;;;;7362800;19;20368;-78
2022/01/29 12:44:34;;;;;;;1.60;1.38;;;;;;;;;;7368480;19;20687;-77
2022/01/29 12:47:06;;;;;;;1.95;1.42;;;;;;;;;;7364790;19;21146;-78
2022/01/29 12:49:42;;;;;;;2.35;1.63;;;;;;;;;;7368466;19;20957;-78
2022/01/29 12:52:17;;;;;;;2.10;1.55;;;;;;;;;;7372164;19;20163;-78
2022/01/29 12:54:54;;;;;;;1.47;0.90;;;;;;;;;;7370299;19;20533;-77
2022/01/29 12:57:27;;;;;;;2.35;1.50;;;;;;;;;;7372519;19;20384;-78
2022/01/29 12:59:57;;;;;;;2.50;1.33;;;;;;;;;;7370946;19;20148;-78
2022/01/29 13:02:29;;;;;;;1.90;1.20;;;;;;;;;;7364814;19;20432;-78
2022/01/29 13:05:02;;;;;;;1.40;1.30;;;;;;;;;;7370079;19;20403;-78
2022/01/29 13:07:34;;;;;;;2.03;1.20;;;;;;;;;;7370661;19;20700;-77
2022/01/29 13:10:03;;;;;;;2.30;1.73;;;;;;;;;;7377141;19;20423;-77
2022/01/29 13:12:40;;;;;;;2.10;1.30;;;;;;;;;;7372535;19;20152;-77
2022/01/29 13:15:13;;;;;;;1.67;1.10;;;;;;;;;;7372743;19;20139;-77
2022/01/29 13:17:47;;;;;;;1.90;1.75;;;;;;;;;;7347139;19;20737;-77
2022/01/29 13:20:18;;;;;;;2.25;1.45;;;;;;;;;;7369834;19;20158;-79
2022/01/29 13:22:47;;;;;;;2.33;1.80;;;;;;;;;;7376137;19;20139;-77
2022/01/29 13:25:17;;;;;;;8.45;4.43;;;;;;;;;;7369306;19;20492;-77
2022/01/29 13:27:52;;;;;;;2.72;1.38;;;;;;;;;;7378409;19;20135;-77
2022/01/29 13:30:26;;;;;;;2.17;1.80;;;8.70;61.30;;;;;;7378538;19;20128;-77
2022/01/29 13:33:09;;;;;;;2.33;1.60;;;8.00;63.90;;;;;;7377908;19;20875;-76
2022/01/29 13:35:45;;;;;;;2.60;1.75;;;8.00;64.50;;;;;;7380004;19;20617;-77
2022/01/29 13:38:18;;;;;;;1.90;1.52;;;7.90;64.80;;;;;;7380858;19;20150;-77